Time;durP1;ratioP1;P1;durP2;ratioP2;P2;SDS_P1;SDS_P2;PMS_P1;PMS_P2;Temp;Humidity;BMP_temperature;BMP_pressure;BME280_temperature;BME280_humidity;BME280_pressure;Samples;Min_cycle;Max_cycle;Signal;HPM_P1;HPM_P2
2021/06/26 00:02:21;;;;;;;;;8.67;7.67;;;;;24.37;58.46;98536.06;4819530;28;102457;-84
2021/06/26 00:04:49;;;;;;;;;7.00;6.33;;;;;24.29;58.95;98528.41;4841787;28;103613;-82
2021/06/26 00:07:17;;;;;;;;;6.00;6.00;;;;;24.40;58.55;98529.97;4816189;28;104083;-83
2021/06/26 00:09:47;;;;;;;;;8.00;6.67;;;;;24.34;58.47;98528.38;4879228;28;101358;-83
2021/06/26 00:12:32;;;;;;;;;6.67;6.00;;;;;24.38;58.44;98538.56;4857306;28;102449;-82
2021/06/26 00:15:10;;;;;;;;;8.00;8.00;;;;;24.37;58.46;98542.44;4857424;28;102691;-82
2021/06/26 00:18:18;;;;;;;;;8.00;8.00;;;;;24.28;58.52;98532.28;5042318;27;102135;-83
2021/06/26 00:21:03;;;;;;;;;8.00;8.00;;;;;24.38;58.19;98552.38;5041410;27;102209;-83
2021/06/26 00:23:48;;;;;;;;;9.67;7.33;;;;;24.31;58.49;98542.78;4988041;27;108224;-83
2021/06/26 00:26:32;;;;;;;;;8.00;8.00;;;;;24.34;57.84;98553.25;5041785;27;104692;-82
2021/06/26 00:29:14;;;;;;;;;6.00;6.00;;;;;24.28;58.18;98538.66;5055515;27;102176;-82
2021/06/26 00:31:59;;;;;;;;;7.67;7.00;;;;;24.36;57.96;98539.97;4973540;27;102682;-83
2021/06/26 00:34:43;;;;;;;;;9.67;7.33;;;;;24.34;58.06;98548.56;5033560;27;107361;-82
2021/06/26 00:37:28;;;;;;;;;9.00;8.00;;;;;24.28;58.41;98541.41;4972874;27;102349;-82
2021/06/26 00:40:14;;;;;;;;;8.00;8.00;;;;;24.30;57.82;98554.94;5027998;27;104103;-83
2021/06/26 00:42:53;;;;;;;;;8.00;7.00;;;;;24.20;58.21;98544.81;4982239;27;103273;-83
2021/06/26 00:45:22;;;;;;;;;8.00;7.00;;;;;24.23;58.38;98546.97;5020564;27;103274;-82
2021/06/26 00:47:50;;;;;;;;;7.33;7.33;;;;;24.20;57.81;98546.75;5039633;27;103920;-82
2021/06/26 00:50:31;;;;;;;;;8.33;7.00;;;;;24.21;57.87;98549.22;5030855;27;102252;-82
2021/06/26 00:53:01;;;;;;;;;9.33;8.67;;;;;24.19;58.12;98542.34;5052626;27;102221;-83
2021/06/26 00:55:29;;;;;;;;;8.00;7.67;;;;;24.24;58.02;98553.34;5043475;27;104611;-82
2021/06/26 00:57:58;;;;;;;;;7.33;7.00;;;;;24.17;58.08;98539.88;5050106;27;101990;-81
2021/06/26 01:00:29;;;;;;;;;8.33;7.33;;;;;24.19;57.79;98539.56;5040343;27;104195;-82
2021/06/26 01:02:57;;;;;;;;;7.00;7.00;;;;;24.24;57.69;98542.28;5017058;27;102243;-82
2021/06/26 01:05:26;;;;;;;;;7.33;7.33;;;;;24.17;57.73;98537.13;5033498;27;103388;-81
2021/06/26 01:08:06;;;;;;;;;9.00;8.33;;;;;24.19;57.33;98545.91;5024559;27;102281;-82
2021/06/26 01:10:36;;;;;;;;;7.00;7.00;;;;;24.26;57.49;98556.66;5006256;27;105149;-82
2021/06/26 01:13:08;;;;;;;;;5.00;5.00;;;;;24.27;57.09;98558.31;5047504;27;102073;-83
2021/06/26 01:15:52;;;;;;;;;9.00;7.67;;;;;24.27;56.84;98547.25;5039351;27;110498;-83
2021/06/26 01:18:31;;;;;;;;;7.33;7.00;;;;;24.22;57.09;98539.00;5053261;27;101862;-83
2021/06/26 01:21:10;;;;;;;;;9.00;7.33;;;;;24.20;57.30;98541.22;5038949;27;102164;-82
2021/06/26 01:23:52;;;;;;;;;5.67;5.67;;;;;24.12;56.85;98533.53;5044173;27;102780;-82
2021/06/26 01:26:31;;;;;;;;;6.00;6.00;;;;;24.11;57.04;98534.66;5039269;27;105194;-83
2021/06/26 01:29:14;;;;;;;;;7.00;7.00;;;;;24.19;57.29;98553.38;5035457;27;101776;-82
2021/06/26 01:31:48;;;;;;;;;9.33;8.33;;;;;24.11;57.12;98540.16;5020779;27;102117;-82
2021/06/26 01:34:46;;;;;;;;;6.00;6.00;;;;;24.13;56.91;98549.84;4724824;27;7533601;-83
2021/06/26 01:37:26;;;;;;;;;8.00;7.00;;;;;24.11;57.03;98562.28;4968014;27;102227;-83
2021/06/26 01:40:23;;;;;;;;;9.67;9.67;;;;;24.13;56.52;98546.25;4993618;28;103826;-82
2021/06/26 01:42:58;;;;;;;;;7.67;7.00;;;;;24.04;56.73;98542.47;4920040;28;102504;-82
2021/06/26 01:45:42;;;;;;;;;7.00;7.00;;;;;24.04;56.79;98554.34;4965334;27;101955;-82
2021/06/26 01:48:16;;;;;;;;;7.33;7.33;;;;;24.05;56.88;98560.66;4975540;28;102106;-81
2021/06/26 01:50:53;;;;;;;;;8.00;7.33;;;;;23.98;56.73;98541.66;4991911;27;108225;-83
2021/06/26 01:53:20;;;;;;;;;7.67;6.67;;;;;24.02;56.66;98557.38;5020005;27;102155;-83
2021/06/26 01:56:01;;;;;;;;;8.00;8.00;;;;;24.08;56.56;98565.63;4999637;27;102561;-81
2021/06/26 01:58:42;;;;;;;;;8.67;7.00;;;;;24.01;56.66;98560.41;4990459;27;101389;-82
2021/06/26 02:01:19;;;;;;;;;7.67;7.00;;;;;24.01;56.66;98555.72;4992440;27;109034;-84
2021/06/26 02:03:47;;;;;;;;;8.00;7.00;;;;;24.04;56.66;98556.28;5002261;28;103333;-83
2021/06/26 02:06:28;;;;;;;;;6.33;6.00;;;;;24.06;55.95;98565.06;4920034;27;102550;-82
2021/06/26 02:08:57;;;;;;;;;7.67;7.00;;;;;24.04;56.35;98573.66;5005540;27;102237;-83
2021/06/26 02:11:38;;;;;;;;;7.67;7.67;;;;;23.92;56.60;98551.94;5018664;27;104273;-82
2021/06/26 02:14:06;;;;;;;;;6.33;6.33;;;;;23.98;56.34;98561.00;4992642;28;102271;-83
2021/06/26 02:16:34;;;;;;;;;8.33;7.00;;;;;23.91;56.51;98561.31;4977823;28;104071;-82
2021/06/26 02:19:04;;;;;;;;;9.00;7.00;;;;;23.87;56.53;98554.72;4998196;27;102723;-82
2021/06/26 02:21:32;;;;;;;;;9.00;7.67;;;;;23.96;56.35;98571.50;5008072;27;104942;-82
2021/06/26 02:24:00;;;;;;;;;9.00;7.67;;;;;23.95;56.67;98579.00;4986802;28;102943;-83
2021/06/26 02:26:27;;;;;;;;;8.33;7.00;;;;;23.95;56.36;98589.22;5002894;28;102628;-83
2021/06/26 02:28:56;;;;;;;;;10.00;8.67;;;;;23.93;56.39;98583.13;4992163;28;102703;-83
2021/06/26 02:31:24;;;;;;;;;6.67;6.67;;;;;23.82;56.53;98574.09;4980670;27;101894;-82
2021/06/26 02:33:52;;;;;;;;;11.67;8.00;;;;;23.89;56.07;98584.84;4989118;28;101953;-83
2021/06/26 02:36:20;;;;;;;;;10.33;8.33;;;;;23.85;56.58;98579.06;5004335;27;102225;-82
2021/06/26 02:39:01;;;;;;;;;9.00;8.00;;;;;23.79;56.44;98571.91;4939769;28;102692;-82
2021/06/26 02:41:29;;;;;;;;;7.00;7.00;;;;;23.85;56.27;98587.34;4998591;27;103037;-82
2021/06/26 02:44:09;;;;;;;;;10.00;8.00;;;;;23.83;56.25;98586.81;4987111;28;102209;-82
2021/06/26 02:46:36;;;;;;;;;8.00;7.00;;;;;23.80;56.28;98581.84;4989315;28;103336;-82
2021/06/26 02:49:04;;;;;;;;;7.33;7.00;;;;;23.79;55.88;98590.41;4972283;28;102737;-82
2021/06/26 02:51:32;;;;;;;;;7.33;6.00;;;;;23.86;56.51;98602.81;4949611;28;103060;-82
2021/06/26 02:54:13;;;;;;;;;8.67;7.67;;;;;23.76;56.33;98596.53;4987302;28;104260;-82
2021/06/26 02:56:41;;;;;;;;;8.67;7.33;;;;;23.81;56.31;98599.25;4985871;28;102516;-82
2021/06/26 02:59:12;;;;;;;;;8.33;7.33;;;;;23.79;56.25;98607.81;4984771;27;102602;-82
2021/06/26 03:01:46;;;;;;;;;9.00;9.00;;;;;23.75;56.49;98601.22;4990589;28;108705;-83
2021/06/26 03:04:27;;;;;;;;;8.33;7.00;;;;;23.71;56.29;98580.81;4936849;28;104566;-83
2021/06/26 03:07:08;;;;;;;;;10.00;9.67;;;;;23.68;56.29;98597.97;4977054;28;102077;-82
2021/06/26 03:09:36;;;;;;;;;7.33;7.00;;;;;23.73;55.91;98599.88;4973422;28;102053;-82
2021/06/26 03:12:04;;;;;;;;;7.00;7.00;;;;;23.79;56.34;98602.28;4980601;28;103269;-83
2021/06/26 03:14:31;;;;;;;;;9.67;9.67;;;;;23.71;56.56;98602.91;4989576;28;102008;-83
2021/06/26 03:17:00;;;;;;;;;9.00;8.00;;;;;23.77;56.41;98623.03;4993681;28;102143;-82
2021/06/26 03:19:27;;;;;;;;;7.67;7.67;;;;;23.78;56.29;98617.22;4993895;28;102114;-83
2021/06/26 03:21:55;;;;;;;;;9.67;7.00;;;;;23.75;56.20;98616.97;4991235;28;103060;-83
2021/06/26 03:24:28;;;;;;;;;8.33;7.67;;;;;23.78;56.09;98628.25;4976563;27;101872;-82
2021/06/26 03:27:08;;;;;;;;;8.00;7.33;;;;;23.75;56.05;98617.78;4969618;28;102429;-83
2021/06/26 03:29:36;;;;;;;;;8.00;8.00;;;;;23.70;56.24;98617.81;4993350;28;102039;-82
2021/06/26 03:32:03;;;;;;;;;8.33;8.33;;;;;23.74;55.98;98627.19;4974316;28;103336;-83
2021/06/26 03:34:32;;;;;;;;;5.00;4.00;;;;;23.70;56.43;98620.56;4980816;28;109244;-83
2021/06/26 03:37:03;;;;;;;;;9.00;8.00;;;;;23.72;56.06;98625.81;4972571;28;102428;-82
2021/06/26 03:39:33;;;;;;;;;9.33;7.00;;;;;23.76;55.83;98622.22;4966301;28;102585;-83
2021/06/26 03:42:06;;;;;;;;;8.67;8.00;;;;;23.73;56.12;98625.53;4968739;28;104335;-82
2021/06/26 03:44:39;;;;;;;;;9.00;8.33;;;;;23.67;56.43;98623.09;4970621;28;102201;-82
2021/06/26 03:47:09;;;;;;;;;7.33;7.33;;;;;23.66;56.19;98619.50;4965529;28;102219;-82
2021/06/26 03:50:04;;;;;;;;;7.33;7.33;;;;;23.67;56.18;98628.63;4920132;27;2247516;-82
2021/06/26 03:52:36;;;;;;;;;9.67;8.33;;;;;23.63;56.19;98610.97;4980479;28;103585;-82
2021/06/26 03:55:05;;;;;;;;;9.00;9.00;;;;;23.70;56.10;98626.09;4969655;28;104064;-83
2021/06/26 03:57:34;;;;;;;;;9.00;9.00;;;;;23.67;55.93;98614.81;4992365;27;102298;-82
2021/06/26 04:00:01;;;;;;;;;8.33;8.33;;;;;23.67;55.80;98612.88;4993600;28;102400;-82
2021/06/26 04:02:28;;;;;;;;;7.00;7.00;;;;;23.69;55.79;98624.44;5005251;27;102219;-82
2021/06/26 04:05:09;;;;;;;;;9.00;8.00;;;;;23.70;56.02;98617.81;5013199;27;103848;-82
2021/06/26 04:07:37;;;;;;;;;11.00;9.33;;;;;23.61;56.01;98608.47;5000446;28;101764;-83
2021/06/26 04:10:07;;;;;;;;;7.67;7.67;;;;;23.61;56.02;98605.72;5004186;28;102563;-83
2021/06/26 04:12:34;;;;;;;;;7.67;7.67;;;;;23.63;55.91;98602.69;5006726;28;103544;-82
2021/06/26 04:15:04;;;;;;;;;8.33;7.00;;;;;23.69;55.72;98607.06;5006381;28;104269;-84
2021/06/26 04:17:32;;;;;;;;;9.33;8.67;;;;;23.60;55.86;98598.53;4993494;27;103141;-82
2021/06/26 04:20:00;;;;;;;;;9.00;7.33;;;;;23.62;55.68;98601.84;5005653;27;102100;-82
2021/06/26 04:22:44;;;;;;;;;7.33;7.33;;;;;23.60;55.61;98587.50;5002354;27;102916;-82
2021/06/26 04:25:13;;;;;;;;;7.67;7.67;;;;;23.68;55.66;98606.25;5005216;28;102223;-84
2021/06/26 04:27:47;;;;;;;;;9.33;8.67;;;;;23.65;55.90;98595.75;4993045;28;102335;-83
2021/06/26 04:30:16;;;;;;;;;7.33;6.33;;;;;23.58;55.87;98583.38;4988021;27;101994;-82
2021/06/26 04:32:57;;;;;;;;;8.00;8.00;;;;;23.66;55.77;98589.13;5000757;28;101910;-81
2021/06/26 04:35:29;;;;;;;;;8.00;7.67;;;;;23.57;55.63;98579.81;4988192;28;102061;-81
2021/06/26 04:38:10;;;;;;;;;9.33;7.67;;;;;23.70;55.77;98595.72;5001002;28;102109;-82
2021/06/26 04:40:52;;;;;;;;;7.67;7.00;;;;;23.62;55.77;98571.50;5002055;27;102278;-82
2021/06/26 04:43:33;;;;;;;;;8.33;8.33;;;;;23.65;55.77;98581.94;4935822;28;102055;-82
2021/06/26 04:46:13;;;;;;;;;7.33;6.00;;;;;23.61;55.98;98572.59;4996264;28;103930;-82
2021/06/26 04:48:44;;;;;;;;;8.00;7.00;;;;;23.62;55.89;98584.47;5011891;27;102987;-82
2021/06/26 04:51:22;;;;;;;;;3.33;3.00;;;;;23.57;55.99;98571.53;5032369;27;102396;-81
2021/06/26 04:53:51;;;;;;;;;7.33;7.33;;;;;23.62;56.08;98581.72;4992892;27;101985;-82
2021/06/26 04:56:53;;;;;;;;;6.00;5.00;;;;;23.66;55.83;98583.59;5049476;27;102223;-82
2021/06/26 04:59:22;;;;;;;;;7.67;6.67;;;;;23.55;56.08;98569.03;5036489;27;102170;-82
2021/06/26 05:02:00;;;;;;;;;7.33;7.33;;;;;23.60;56.07;98564.59;4955981;27;107047;-82
2021/06/26 05:04:41;;;;;;;;;8.00;7.00;;;;;23.65;56.02;98573.66;5027350;27;101909;-82
2021/06/26 05:07:14;;;;;;;;;10.33;10.00;;;;;23.61;56.17;98567.06;5019437;27;101934;-82
2021/06/26 05:09:55;;;;;;;;;7.67;7.00;;;;;23.63;55.89;98575.09;5015922;27;102298;-82
2021/06/26 05:12:22;;;;;;;;;6.33;6.33;;;;;23.64;56.16;98573.97;5062860;27;102497;-82
2021/06/26 05:14:52;;;;;;;;;8.00;8.00;;;;;23.65;55.80;98579.19;5007566;27;102391;-83
2021/06/26 05:17:19;;;;;;;;;8.00;7.00;;;;;23.60;55.94;98576.47;5037763;27;102201;-82
2021/06/26 05:19:48;;;;;;;;;6.33;6.33;;;;;23.65;56.09;98589.41;5005729;27;102406;-83
2021/06/26 05:22:28;;;;;;;;;7.33;7.33;;;;;23.66;55.85;98591.06;5008163;27;108398;-82
2021/06/26 05:24:59;;;;;;;;;7.33;7.33;;;;;23.68;55.86;98611.78;5026875;27;101529;-82
2021/06/26 05:27:28;;;;;;;;;8.33;8.00;;;;;23.69;56.12;98613.41;5011369;27;101951;-82
2021/06/26 05:29:58;;;;;;;;;9.33;9.33;;;;;23.67;56.18;98606.53;5044347;27;102197;-83
2021/06/26 05:32:28;;;;;;;;;8.67;8.00;;;;;23.62;56.16;98604.63;5025004;27;104376;-83
2021/06/26 05:34:55;;;;;;;;;6.00;5.00;;;;;23.62;56.08;98604.63;4998072;27;102199;-83
2021/06/26 05:37:30;;;;;;;;;6.67;6.67;;;;;23.76;55.99;98621.38;5028943;27;102044;-83
2021/06/26 05:40:04;;;;;;;;;9.33;8.00;;;;;23.68;55.78;98617.28;5032201;27;102543;-82
2021/06/26 05:42:31;;;;;;;;;6.33;5.00;;;;;23.74;56.09;98618.91;5042511;27;103152;-83
2021/06/26 05:44:59;;;;;;;;;7.67;7.00;;;;;23.77;55.46;98612.81;5052472;27;102242;-82
2021/06/26 05:47:27;;;;;;;;;7.00;6.33;;;;;23.79;55.75;98605.06;5048107;27;102512;-82
2021/06/26 05:50:08;;;;;;;;;8.00;8.00;;;;;23.74;55.58;98594.03;5050062;27;102209;-82
2021/06/26 05:52:53;;;;;;;;;7.67;7.00;;;;;23.73;55.86;98599.88;5045392;27;103029;-82
2021/06/26 05:55:34;;;;;;;;;6.67;6.67;;;;;23.71;55.65;98597.38;4954068;27;102509;-83
2021/06/26 05:58:05;;;;;;;;;7.33;7.00;;;;;23.78;55.82;98606.16;5048540;27;102351;-82
2021/06/26 06:00:46;;;;;;;;;7.00;6.67;;;;;23.73;55.57;98592.38;5033584;27;101914;-82
2021/06/26 06:03:16;;;;;;;;;7.00;6.67;;;;;23.71;55.60;98600.16;5040530;27;104081;-82
2021/06/26 06:05:46;;;;;;;;;8.00;7.00;;;;;23.74;55.56;98602.31;5031976;27;102033;-81
2021/06/26 06:08:27;;;;;;;;;6.00;6.00;;;;;23.75;55.78;98605.91;5041492;27;102514;-83
2021/06/26 06:10:57;;;;;;;;;7.00;7.00;;;;;23.74;56.03;98598.75;5004261;27;102093;-83
2021/06/26 06:13:37;;;;;;;;;9.00;6.67;;;;;23.79;55.99;98607.81;5017261;27;103077;-83
2021/06/26 06:16:04;;;;;;;;;8.67;6.00;;;;;23.78;55.55;98616.38;5008023;27;104987;-83
2021/06/26 06:18:45;;;;;;;;;9.00;7.67;;;;;23.76;55.83;98610.34;5023016;27;102488;-81
2021/06/26 06:21:16;;;;;;;;;10.00;7.33;;;;;23.83;55.83;98625.47;5035593;27;102652;-83
2021/06/26 06:23:46;;;;;;;;;8.67;7.00;;;;;23.76;55.60;98613.91;5009810;27;104291;-81
2021/06/26 06:26:26;;;;;;;;;7.33;7.33;;;;;23.85;55.69;98634.31;4991948;27;104075;-82
2021/06/26 06:29:07;;;;;;;;;7.00;7.00;;;;;23.87;55.79;98639.50;5018462;27;102504;-83
2021/06/26 06:31:35;;;;;;;;;5.33;5.33;;;;;23.77;56.05;98634.91;5026580;27;104490;-83
2021/06/26 06:34:03;;;;;;;;;10.00;9.00;;;;;23.77;55.91;98636.84;5038271;27;102396;-82
2021/06/26 06:36:44;;;;;;;;;7.00;7.00;;;;;23.76;55.68;98624.97;4992775;27;101974;-82
2021/06/26 06:39:11;;;;;;;;;9.33;8.00;;;;;23.86;56.25;98640.66;5009305;27;102872;-83
2021/06/26 06:41:40;;;;;;;;;6.00;5.67;;;;;23.86;56.11;98649.75;5007446;27;101900;-82
2021/06/26 06:44:21;;;;;;;;;7.00;7.00;;;;;23.71;56.03;98616.72;5027524;27;108274;-83
2021/06/26 06:47:02;;;;;;;;;7.33;6.00;;;;;23.88;55.96;98646.69;5009431;27;103479;-82
2021/06/26 06:49:31;;;;;;;;;8.67;7.67;;;;;23.83;56.13;98641.19;5007403;27;108567;-82
2021/06/26 06:51:58;;;;;;;;;7.67;7.00;;;;;23.77;55.87;98632.16;5006336;27;102130;-83
2021/06/26 06:54:26;;;;;;;;;9.67;9.00;;;;;23.87;55.79;98651.41;5012173;27;104085;-84
2021/06/26 06:56:55;;;;;;;;;9.00;7.67;;;;;23.77;56.05;98632.16;4997847;27;103940;-81
2021/06/26 06:59:36;;;;;;;;;8.00;8.00;;;;;23.84;56.14;98638.16;4959098;27;103005;-83
2021/06/26 07:02:04;;;;;;;;;7.67;7.33;;;;;23.83;56.43;98649.50;5039864;27;102026;-82
2021/06/26 07:04:45;;;;;;;;;7.00;6.67;;;;;23.77;56.43;98634.91;5040529;27;105194;-81
2021/06/26 07:07:26;;;;;;;;;8.00;7.67;;;;;23.79;56.00;98635.44;4982024;27;103342;-86
2021/06/26 07:09:54;;;;;;;;;7.00;7.00;;;;;23.82;56.18;98645.09;5001846;27;102297;-82
2021/06/26 07:12:25;;;;;;;;;10.00;8.67;;;;;23.87;56.04;98651.41;4930590;27;102760;-82
2021/06/26 07:14:59;;;;;;;;;9.33;7.33;;;;;23.81;56.25;98633.22;4975944;27;107736;-83
2021/06/26 07:17:40;;;;;;;;;7.67;7.67;;;;;23.84;56.33;98640.94;4998506;27;102996;-82
2021/06/26 07:20:08;;;;;;;;;9.00;7.67;;;;;23.88;56.20;98643.94;5004160;27;101389;-81
2021/06/26 07:22:49;;;;;;;;;7.00;7.00;;;;;24.07;56.08;98646.84;5028048;27;102040;-87
2021/06/26 07:25:30;;;;;;;;;8.33;7.33;;;;;24.18;55.63;98635.44;5022755;27;108158;-85
2021/06/26 07:28:10;;;;;;;;;8.33;7.00;;;;;24.23;56.00;98640.13;4981930;27;102595;-81
2021/06/26 07:30:38;;;;;;;;;13.00;10.67;;;;;24.16;56.63;98645.97;5028316;27;102005;-82
2021/06/26 07:33:05;;;;;;;;;10.00;10.00;;;;;24.19;56.58;98641.81;5000972;27;102239;-81
2021/06/26 07:35:33;;;;;;;;;11.67;10.33;;;;;24.14;56.28;98630.75;4991073;27;104083;-81
2021/06/26 07:38:01;;;;;;;;;12.33;10.67;;;;;24.21;56.54;98642.34;5009618;27;103854;-80
2021/06/26 07:40:29;;;;;;;;;13.33;12.00;;;;;24.28;56.47;98637.31;5020484;27;102215;-82
2021/06/26 07:43:01;;;;;;;;;16.00;14.00;;;;;24.23;56.82;98618.00;4969975;27;102513;-80
2021/06/26 07:45:28;;;;;;;;;14.33;11.67;;;;;24.22;56.65;98621.91;5011177;27;105304;-80
2021/06/26 07:47:56;;;;;;;;;14.00;13.00;;;;;24.30;56.72;98632.34;4999385;27;104349;-80
2021/06/26 07:50:23;;;;;;;;;13.33;11.00;;;;;24.26;56.57;98622.97;5022294;27;102148;-79
2021/06/26 07:52:50;;;;;;;;;13.33;13.00;;;;;24.25;56.74;98621.31;5036515;27;102445;-80
2021/06/26 07:55:18;;;;;;;;;12.67;12.00;;;;;24.24;56.68;98617.72;4964520;27;103063;-80
2021/06/26 07:57:45;;;;;;;;;13.33;13.33;;;;;24.33;56.66;98634.50;4994468;27;102592;-80
2021/06/26 08:00:13;;;;;;;;;12.67;11.67;;;;;24.23;56.88;98616.06;4988195;27;102417;-80
2021/06/26 08:02:40;;;;;;;;;14.67;12.33;;;;;24.34;57.02;98630.63;5004114;27;102666;-80
2021/06/26 08:05:12;;;;;;;;;14.00;13.00;;;;;24.26;56.59;98612.75;5029389;27;103015;-80
2021/06/26 08:07:52;;;;;;;;;16.00;14.00;;;;;24.34;56.43;98636.16;5010493;27;102511;-79
2021/06/26 08:10:20;;;;;;;;;12.33;12.33;;;;;24.34;56.90;98636.16;5004134;27;102152;-80
2021/06/26 08:12:48;;;;;;;;;13.33;13.00;;;;;24.31;56.95;98626.53;4994259;27;102246;-80
2021/06/26 08:15:17;;;;;;;;;11.67;11.67;;;;;24.31;56.91;98614.66;4990501;27;103153;-80
2021/06/26 08:17:44;;;;;;;;;16.00;15.67;;;;;24.34;56.83;98619.59;5009462;27;102374;-80
2021/06/26 08:20:12;;;;;;;;;14.67;12.67;;;;;24.36;56.58;98629.22;4975256;27;102075;-80
2021/06/26 08:22:40;;;;;;;;;14.33;13.67;;;;;24.32;56.53;98633.69;5011212;27;102134;-79
2021/06/26 08:25:08;;;;;;;;;13.33;11.67;;;;;24.30;55.89;98635.94;4995058;27;104762;-80
2021/06/26 08:27:35;;;;;;;;;11.33;10.33;;;;;24.20;55.86;98615.84;4997730;27;102127;-80
2021/06/26 08:30:03;;;;;;;;;9.67;9.00;;;;;24.20;55.87;98624.94;4996547;27;102292;-80
2021/06/26 08:32:30;;;;;;;;;13.67;13.67;;;;;24.13;56.05;98629.13;5000535;27;102216;-80
2021/06/26 08:34:58;;;;;;;;;7.00;6.33;;;;;24.18;55.97;98634.66;5014838;27;104027;-80
2021/06/26 08:37:33;;;;;;;;;7.00;6.67;;;;;24.15;55.95;98641.53;5002040;27;102576;-80
2021/06/26 08:40:00;;;;;;;;;9.33;7.00;;;;;24.14;55.89;98633.53;5004683;27;102348;-80
2021/06/26 08:42:27;;;;;;;;;7.67;7.33;;;;;24.08;55.63;98626.41;5015018;27;102291;-80
2021/06/26 08:44:58;;;;;;;;;7.67;7.33;;;;;24.05;55.27;98627.78;5002589;27;112274;-80
2021/06/26 08:47:26;;;;;;;;;6.33;6.33;;;;;24.08;55.54;98637.47;4965372;27;102530;-79
2021/06/26 08:49:53;;;;;;;;;7.33;7.00;;;;;23.99;55.76;98632.56;5011201;27;102342;-80
2021/06/26 08:52:20;;;;;;;;;6.67;6.00;;;;;23.96;55.84;98624.81;5015293;27;103754;-79
2021/06/26 08:54:54;;;;;;;;;8.67;8.00;;;;;23.95;55.73;98633.41;4966934;27;104463;-80
2021/06/26 08:57:35;;;;;;;;;8.00;8.00;;;;;23.88;55.95;98619.09;5007157;27;102360;-80
2021/06/26 09:00:05;;;;;;;;;9.67;9.00;;;;;23.97;56.26;98637.53;4999163;27;102196;-80
2021/06/26 09:02:32;;;;;;;;;9.33;8.00;;;;;23.90;56.49;98623.22;5018009;27;102240;-80
2021/06/26 09:05:03;;;;;;;;;6.00;6.00;;;;;23.93;56.36;98624.56;4999710;27;103173;-80
2021/06/26 09:07:39;;;;;;;;;10.33;9.67;;;;;23.89;56.45;98620.75;4980692;27;102749;-81
2021/06/26 09:10:12;;;;;;;;;11.00;10.00;;;;;23.84;56.45;98616.06;5027990;27;102320;-79
2021/06/26 09:12:39;;;;;;;;;10.67;10.00;;;;;23.87;56.44;98607.19;5007900;27;103701;-78
2021/06/26 09:15:07;;;;;;;;;11.33;9.67;;;;;23.87;56.45;98600.84;5023076;27;104435;-79
2021/06/26 09:17:35;;;;;;;;;8.00;8.00;;;;;24.00;56.56;98620.38;5023663;27;102638;-79
2021/06/26 09:20:06;;;;;;;;;9.33;8.67;;;;;24.04;56.61;98615.13;5010287;27;102517;-79
2021/06/26 09:22:39;;;;;;;;;10.00;9.67;;;;;24.07;56.39;98624.75;4987273;27;102945;-80
2021/06/26 09:25:23;;;;;;;;;8.67;8.67;;;;;24.12;56.64;98620.00;5030638;27;104205;-80
2021/06/26 09:27:50;;;;;;;;;9.00;7.67;;;;;24.12;56.52;98616.41;4998640;27;102364;-79
2021/06/26 09:30:29;;;;;;;;;8.00;8.00;;;;;24.11;56.37;98614.75;5011268;27;102303;-79
2021/06/26 09:32:56;;;;;;;;;9.33;9.00;;;;;24.13;56.55;98615.31;4990228;27;102224;-79
2021/06/26 09:35:23;;;;;;;;;9.33;9.00;;;;;24.07;56.67;98605.41;5005602;27;104019;-80
2021/06/26 09:37:51;;;;;;;;;11.00;8.00;;;;;24.12;56.53;98605.38;4991100;27;102637;-80
2021/06/26 09:40:25;;;;;;;;;12.00;9.33;;;;;24.17;56.49;98614.47;4995867;27;102526;-80
2021/06/26 09:42:53;;;;;;;;;11.00;9.67;;;;;24.12;56.59;98600.69;4980982;27;102765;-79
2021/06/26 09:45:21;;;;;;;;;11.00;11.00;;;;;24.20;56.58;98610.31;5001580;27;104082;-80
2021/06/26 09:47:48;;;;;;;;;10.00;8.33;;;;;24.16;56.48;98607.31;4996115;27;102251;-80
2021/06/26 09:50:26;;;;;;;;;9.33;9.33;;;;;24.16;56.31;98596.25;5022317;27;102665;-80
2021/06/26 09:52:55;;;;;;;;;8.67;8.33;;;;;24.20;56.58;98602.00;4995430;27;102363;-80
2021/06/26 09:55:32;;;;;;;;;8.00;7.00;;;;;24.19;56.36;98603.13;4964481;28;104735;-79
2021/06/26 09:58:01;;;;;;;;;10.00;10.00;;;;;24.16;56.64;98595.41;5024090;27;102068;-80
2021/06/26 10:00:29;;;;;;;;;9.67;7.67;;;;;24.28;56.42;98604.16;5013608;27;103707;-80
2021/06/26 10:02:58;;;;;;;;;9.33;9.33;;;;;24.30;56.56;98607.47;5000566;27;102273;-80
2021/06/26 10:05:25;;;;;;;;;10.67;8.67;;;;;24.24;56.52;98587.31;5010421;27;105673;-79
2021/06/26 10:07:53;;;;;;;;;10.00;10.00;;;;;24.31;56.28;98600.81;5005547;27;103477;-79
2021/06/26 10:10:21;;;;;;;;;9.00;8.00;;;;;24.30;56.36;98593.63;4977197;27;102513;-80
2021/06/26 10:12:50;;;;;;;;;8.67;8.67;;;;;24.38;56.37;98590.25;4982641;27;102400;-80
2021/06/26 10:16:07;;;;;;;;;9.33;9.00;;;;;24.35;56.14;98586.13;4990508;27;104336;-79
2021/06/26 10:18:41;;;;;;;;;10.67;8.67;;;;;24.32;56.20;98575.63;4953547;27;102685;-79
2021/06/26 10:21:09;;;;;;;;;9.00;9.00;;;;;24.40;55.38;98579.72;4991572;27;102261;-79
2021/06/26 10:23:36;;;;;;;;;11.33;10.00;;;;;23.98;56.15;98583.94;5017754;27;102731;-75
2021/06/26 10:26:03;;;;;;;;;14.67;13.33;;;;;23.64;55.67;98583.06;5000582;27;104324;-75
2021/06/26 10:28:30;;;;;;;;;13.33;12.00;;;;;23.58;55.68;98581.47;5023648;27;103721;-75
2021/06/26 10:31:02;;;;;;;;;11.33;11.33;;;;;23.57;55.98;98588.09;5011200;27;102977;-75
2021/06/26 10:33:30;;;;;;;;;12.33;12.00;;;;;23.60;56.59;98587.50;5000693;27;103664;-74
2021/06/26 10:36:00;;;;;;;;;13.00;12.00;;;;;23.56;56.70;98564.34;4989641;27;108952;-74
2021/06/26 10:38:42;;;;;;;;;13.00;13.00;;;;;23.49;56.34;98580.41;4999941;27;102587;-74
2021/06/26 10:41:19;;;;;;;;;10.33;10.33;;;;;23.46;56.40;98576.28;4917073;27;102692;-75
2021/06/26 10:43:55;;;;;;;;;13.33;13.33;;;;;23.46;56.74;98579.03;5020580;27;102622;-75
2021/06/26 10:46:23;;;;;;;;;16.33;14.33;;;;;23.28;56.01;98581.63;5022925;27;104321;-74
2021/06/26 10:49:03;;;;;;;;;13.00;12.33;;;;;23.31;55.59;98575.50;5001934;27;102181;-74
2021/06/26 10:51:35;;;;;;;;;20.33;17.67;;;;;23.13;56.42;98565.94;5012113;27;102487;-75
2021/06/26 10:54:10;;;;;;;;;15.67;14.67;;;;;23.14;57.01;98573.91;4975226;27;102286;-76
2021/06/26 10:56:38;;;;;;;;;18.00;17.33;;;;;23.13;57.44;98591.59;4993065;27;104132;-74
2021/06/26 10:59:12;;;;;;;;;13.33;12.67;;;;;23.04;55.55;98575.91;4977488;27;102610;-76
2021/06/26 11:01:57;;;;;;;;;13.00;13.00;;;;;23.02;56.05;98570.69;5004981;27;102550;-74
2021/06/26 11:04:39;;;;;;;;;12.67;12.67;;;;;23.07;56.00;98583.63;4996784;27;103020;-74
2021/06/26 11:07:15;;;;;;;;;14.33;13.33;;;;;23.05;56.30;98586.69;4996826;27;108893;-74
2021/06/26 11:09:48;;;;;;;;;12.67;12.00;;;;;23.13;56.22;98594.38;4987023;27;102293;-76
2021/06/26 11:12:19;;;;;;;;;12.33;11.00;;;;;23.16;56.57;98597.66;4987389;27;104228;-75
2021/06/26 11:15:08;;;;;;;;;11.00;11.00;;;;;23.15;56.80;98580.28;4972132;27;102646;-74
2021/06/26 11:17:38;;;;;;;;;12.00;10.00;;;;;23.32;56.31;98596.50;4973999;27;107925;-75
2021/06/26 11:20:10;;;;;;;;;10.67;10.67;;;;;23.28;56.63;98592.66;5000358;27;102154;-75
2021/06/26 11:23:08;;;;;;;;;14.33;10.33;;;;;23.22;56.14;98591.84;4997735;27;102261;-75
2021/06/26 11:25:35;;;;;;;;;11.67;11.00;;;;;23.22;57.39;98591.00;4989237;27;102338;-75
2021/06/26 11:28:14;;;;;;;;;9.33;9.00;;;;;23.26;57.06;98590.16;5008150;27;102973;-75
2021/06/26 11:30:43;;;;;;;;;10.00;8.67;;;;;23.23;57.04;98587.16;4927053;27;103559;-74
2021/06/26 11:33:11;;;;;;;;;10.67;10.00;;;;;23.26;57.01;98594.84;4969895;27;102753;-75
2021/06/26 11:35:51;;;;;;;;;9.00;8.00;;;;;23.29;57.77;98583.25;4991613;27;102250;-77
2021/06/26 11:38:22;;;;;;;;;10.00;8.33;;;;;23.31;58.63;98592.91;4998914;27;105087;-75
2021/06/26 11:41:09;;;;;;;;;16.00;14.67;;;;;23.10;57.50;98577.53;4991448;27;102869;-75
2021/06/26 11:43:47;;;;;;;;;16.00;12.33;;;;;23.16;58.37;98578.34;4916923;27;103970;-74
2021/06/26 11:46:15;;;;;;;;;12.00;11.33;;;;;23.09;57.78;98587.75;5009806;27;102257;-74
2021/06/26 11:48:50;;;;;;;;;12.00;12.00;;;;;23.05;57.27;98581.16;4988710;27;104250;-74
2021/06/26 11:51:38;;;;;;;;;10.00;9.33;;;;;22.97;57.11;98586.41;4964416;27;104058;-75